createdAt,value
2023-04-18T00:00:16.244Z,2.288777
2023-04-18T00:05:17.196Z,2.209546
2023-04-18T00:10:16.845Z,2.129346
2023-04-18T00:15:17.105Z,2.065312
2023-04-18T00:20:16.788Z,1.979026
2023-04-18T00:25:16.873Z,1.373070
2023-04-18T00:30:16.063Z,0.666424
2023-04-18T00:35:16.171Z,0.656516
2023-04-18T00:40:16.639Z,1.588291
2023-04-18T00:45:16.611Z,1.558440
2023-04-18T00:50:16.364Z,1.445474
2023-04-18T00:55:16.973Z,1.212413
2023-04-18T01:00:16.576Z,0.972341
2023-04-18T01:05:17.444Z,0.430351
2023-04-18T01:10:17.307Z,0.344261
2023-04-18T01:15:16.393Z,0.271650
2023-04-18T01:20:16.094Z,0.250202
2023-04-18T01:25:17.439Z,0.248148
2023-04-18T01:30:17.116Z,0.239582
2023-04-18T01:35:16.697Z,0.240649
2023-04-18T01:40:16.177Z,0.228053
2023-04-18T01:45:16.282Z,0.190873
2023-04-18T01:50:17.094Z,0.162971
2023-04-18T01:55:16.056Z,0.128791
2023-04-18T02:00:16.934Z,0.137942
2023-04-18T02:05:15.944Z,0.212995
2023-04-18T02:10:16.050Z,0.233388
2023-04-18T02:15:15.943Z,0.217801
2023-04-18T02:20:15.903Z,0.144421
2023-04-18T02:25:16.220Z,0.100629
2023-04-18T02:30:16.505Z,0.091952
2023-04-18T02:35:16.434Z,0.073792
2023-04-18T02:40:16.575Z,0.053956
2023-04-18T02:45:16.447Z,0.045100
2023-04-18T02:50:16.765Z,0.039441
2023-04-18T02:55:16.165Z,0.039050
2023-04-18T03:00:15.857Z,0.035100
2023-04-18T03:05:15.939Z,0.032584
2023-04-18T03:10:16.735Z,0.029833
2023-04-18T03:15:15.940Z,0.028303
2023-04-18T03:20:16.135Z,0.027853
2023-04-18T03:25:16.436Z,0.027279
2023-04-18T03:30:16.542Z,0.028596
2023-04-18T03:35:16.030Z,0.027507
2023-04-18T03:40:16.004Z,0.026521
2023-04-18T03:45:15.922Z,0.027248
2023-04-18T03:50:16.240Z,0.027329
2023-04-18T03:55:16.075Z,0.026875
2023-04-18T04:00:16.601Z,0.026903
2023-04-18T04:05:15.971Z,0.027259
2023-04-18T04:10:16.246Z,0.027987
2023-04-18T04:15:16.055Z,0.028284
2023-04-18T04:20:17.370Z,0.026893
2023-04-18T04:25:16.182Z,0.028067
2023-04-18T04:30:16.604Z,0.027593
2023-04-18T04:35:15.951Z,0.027559
2023-04-18T04:40:16.666Z,0.027309
2023-04-18T04:45:15.798Z,0.027309
2023-04-18T04:50:16.034Z,0.027441
2023-04-18T04:55:16.465Z,0.027552
2023-04-18T05:00:16.749Z,0.026791
2023-04-18T05:05:16.539Z,0.027290
2023-04-18T05:10:16.235Z,0.026212
2023-04-18T05:15:16.052Z,0.028596
2023-04-18T05:20:16.153Z,0.027759
2023-04-18T05:25:15.934Z,0.026867
2023-04-18T05:30:16.169Z,0.027329
2023-04-18T05:35:15.960Z,0.027599
2023-04-18T05:40:16.394Z,0.026052
2023-04-18T05:45:16.950Z,0.026950
2023-04-18T05:50:16.148Z,0.027560
2023-04-18T05:55:17.101Z,0.027634
2023-04-18T06:00:17.020Z,0.027298
2023-04-18T06:05:16.161Z,0.026570
2023-04-18T06:10:16.265Z,0.026855
2023-04-18T06:15:16.486Z,0.026661
2023-04-18T06:20:16.636Z,0.026603
2023-04-18T06:25:15.869Z,0.026052
2023-04-18T06:30:16.505Z,0.027634
2023-04-18T06:35:16.073Z,0.028009
2023-04-18T06:40:17.312Z,0.027108
2023-04-18T06:45:15.787Z,0.026451
2023-04-18T06:50:15.946Z,0.027573
2023-04-18T06:55:16.099Z,0.029014
2023-04-18T07:00:17.043Z,0.027439
2023-04-18T07:05:15.718Z,0.027795
2023-04-18T07:10:16.636Z,0.027291
2023-04-18T07:15:16.592Z,0.027970
2023-04-18T07:20:16.975Z,0.028256
2023-04-18T07:25:15.901Z,0.027207
2023-04-18T07:30:16.306Z,0.027207
2023-04-18T07:35:16.633Z,0.026481
2023-04-18T07:40:16.092Z,0.027142
2023-04-18T07:45:16.010Z,0.028026
2023-04-18T07:50:16.539Z,0.026636
2023-04-18T07:55:16.658Z,0.026588
2023-04-18T08:00:16.886Z,0.026720
2023-04-18T08:05:15.967Z,0.027132
2023-04-18T08:10:16.123Z,0.026540
2023-04-18T08:15:16.782Z,0.027800
2023-04-18T08:20:16.248Z,0.026499
2023-04-18T08:25:16.180Z,0.026768
2023-04-18T08:30:16.362Z,0.026332
2023-04-18T08:35:15.949Z,0.027473
2023-04-18T08:40:16.022Z,0.027283
2023-04-18T08:45:16.525Z,0.027365
2023-04-18T08:50:16.085Z,0.025952
2023-04-18T08:55:21.182Z,0.027036
2023-04-18T09:00:17.288Z,0.027624
2023-04-18T09:05:16.268Z,0.025906
2023-04-18T09:10:16.844Z,0.026998
2023-04-18T09:15:17.042Z,0.027418
2023-04-18T09:20:16.756Z,0.027588
2023-04-18T09:25:15.777Z,0.027365
2023-04-18T09:30:16.116Z,0.027412
2023-04-18T09:35:16.098Z,0.027338
2023-04-18T09:40:16.572Z,0.027432
2023-04-18T09:45:16.580Z,0.027974
2023-04-18T09:50:16.397Z,0.028473
2023-04-18T09:55:17.559Z,0.028568
2023-04-18T10:00:17.000Z,0.027568
2023-04-18T10:05:17.620Z,0.026276
2023-04-18T10:10:16.444Z,0.027622
2023-04-18T10:15:15.992Z,0.028946
2023-04-18T10:20:16.152Z,0.028780
2023-04-18T10:25:16.543Z,0.029279
2023-04-18T10:30:16.975Z,0.027979
2023-04-18T10:35:16.239Z,0.027695
2023-04-18T10:40:15.889Z,0.027119
2023-04-18T10:45:16.114Z,0.027507
2023-04-18T10:50:17.240Z,0.027690
2023-04-18T10:55:16.483Z,0.026404
2023-04-18T11:00:16.776Z,0.026457
2023-04-18T11:05:16.429Z,0.026665
2023-04-18T11:10:17.269Z,0.026250
2023-04-18T11:15:16.749Z,0.027082
2023-04-18T11:20:16.361Z,0.027298
2023-04-18T11:25:16.411Z,0.027630
2023-04-18T11:30:15.734Z,0.027018
2023-04-18T11:35:16.554Z,0.026873
2023-04-18T11:40:16.349Z,0.026439
2023-04-18T11:45:15.994Z,0.027639
2023-04-18T11:50:16.322Z,0.026757
2023-04-18T11:55:15.854Z,0.026931
2023-04-18T12:00:16.015Z,0.027459
2023-04-18T12:05:16.106Z,0.026998
2023-04-18T12:10:16.260Z,0.027073
2023-04-18T12:15:16.428Z,0.027806
2023-04-18T12:20:16.834Z,0.027622
2023-04-18T12:25:16.420Z,0.027072
2023-04-18T12:30:16.396Z,0.026781
2023-04-18T12:35:17.608Z,0.026504
2023-04-18T12:40:15.957Z,0.026741
2023-04-18T12:45:16.056Z,0.027370
2023-04-18T12:50:15.876Z,0.028186
2023-04-18T12:55:16.217Z,0.027996
2023-04-18T13:00:16.027Z,0.029754
2023-04-18T13:05:16.499Z,0.032384
2023-04-18T13:10:15.905Z,0.035993
2023-04-18T13:15:16.256Z,0.037552
2023-04-18T13:20:15.911Z,0.040739
2023-04-18T13:25:15.915Z,0.050673
2023-04-18T13:30:16.412Z,0.058084
2023-04-18T13:35:16.444Z,0.074707
2023-04-18T13:40:16.289Z,0.082018
2023-04-18T13:45:15.928Z,0.090327
2023-04-18T13:50:17.253Z,0.091940
2023-04-18T13:55:16.687Z,0.103254
2023-04-18T14:00:17.080Z,0.144231
2023-04-18T14:05:17.843Z,0.179778
2023-04-18T14:10:16.196Z,0.230056
2023-04-18T14:15:16.022Z,0.206664
2023-04-18T14:20:16.354Z,0.196946
2023-04-18T14:25:15.864Z,0.225277
2023-04-18T14:30:15.976Z,0.386849
2023-04-18T14:35:16.025Z,0.359619
2023-04-18T14:40:16.672Z,0.331833
2023-04-18T14:45:16.124Z,0.265303
2023-04-18T14:50:15.813Z,0.302375
2023-04-18T14:55:16.233Z,0.393422
2023-04-18T15:00:16.646Z,0.425250
2023-04-18T15:05:16.037Z,0.295025
2023-04-18T15:10:16.238Z,0.334125
2023-04-18T15:15:16.729Z,0.370668
2023-04-18T15:20:15.909Z,0.227206
2023-04-18T15:25:16.331Z,0.368345
2023-04-18T15:30:16.558Z,0.470025
2023-04-18T15:35:16.666Z,0.403866
2023-04-18T15:40:16.449Z,0.463521
2023-04-18T15:45:16.656Z,0.513699
2023-04-18T15:50:16.225Z,0.535552
2023-04-18T15:55:16.879Z,0.531149
2023-04-18T16:00:16.379Z,0.532662
2023-04-18T16:05:17.267Z,0.757963
2023-04-18T16:10:16.010Z,1.077016
2023-04-18T16:15:15.958Z,1.078141
2023-04-18T16:20:15.944Z,0.887387
2023-04-18T16:25:16.513Z,0.946442
2023-04-18T16:30:15.878Z,0.851325
2023-04-18T16:35:16.956Z,0.850009
2023-04-18T16:40:16.023Z,0.980142
2023-04-18T16:45:16.050Z,1.225064
2023-04-18T16:50:16.616Z,1.343499
2023-04-18T16:55:15.831Z,0.956980
2023-04-18T17:00:16.651Z,0.817796
2023-04-18T17:05:16.699Z,1.041754
2023-04-18T17:10:16.292Z,1.199434
2023-04-18T17:15:16.223Z,0.999954
2023-04-18T17:20:16.246Z,0.882586
2023-04-18T17:25:16.864Z,1.482155
2023-04-18T17:30:16.475Z,1.609157
2023-04-18T17:35:15.880Z,1.524045
2023-04-18T17:40:15.774Z,1.897385
2023-04-18T17:45:16.320Z,3.318236
2023-04-18T17:50:16.068Z,2.623155
2023-04-18T17:55:16.511Z,2.355426
2023-04-18T18:00:16.196Z,3.254492
2023-04-18T18:05:15.696Z,3.691902
2023-04-18T18:10:16.223Z,3.744312
2023-04-18T18:15:15.876Z,3.165463
2023-04-18T18:20:15.953Z,3.063420
2023-04-18T18:25:16.705Z,3.538263
2023-04-18T18:30:16.349Z,3.041832
2023-04-18T18:35:16.890Z,1.651412
2023-04-18T18:40:16.182Z,2.106425
2023-04-18T18:45:16.319Z,1.927325
2023-04-18T18:50:17.722Z,1.642479
2023-04-18T18:55:16.118Z,1.313684
2023-04-18T19:00:16.132Z,1.374619
2023-04-18T19:05:16.116Z,1.406889
2023-04-18T19:10:16.685Z,2.553818
2023-04-18T19:15:15.891Z,4.374397
2023-04-18T19:20:15.764Z,4.269043
2023-04-18T19:25:16.807Z,4.702284
2023-04-18T19:30:16.015Z,3.796827
2023-04-18T19:35:15.820Z,3.759370
2023-04-18T19:40:16.148Z,3.728650
2023-04-18T19:45:16.811Z,4.317513
2023-04-18T19:50:16.618Z,2.438411
2023-04-18T19:55:17.800Z,3.627571
2023-04-18T20:00:15.916Z,3.789580
2023-04-18T20:05:16.848Z,4.399002
2023-04-18T20:10:17.246Z,3.315108
2023-04-18T20:15:16.527Z,2.842362
2023-04-18T20:20:16.388Z,2.796074
2023-04-18T20:25:16.451Z,2.097212
2023-04-18T20:30:15.815Z,3.161183
2023-04-18T20:35:17.045Z,3.208428
2023-04-18T20:40:15.876Z,2.503296
2023-04-18T20:45:16.814Z,4.902427
2023-04-18T20:50:16.505Z,3.693611
2023-04-18T20:55:15.985Z,2.093988
2023-04-18T21:00:15.740Z,3.480647
2023-04-18T21:05:16.200Z,2.925527
2023-04-18T21:10:16.029Z,3.488732
2023-04-18T21:15:16.591Z,2.526962
2023-04-18T21:20:15.976Z,2.548207
2023-04-18T21:25:16.428Z,3.188765
2023-04-18T21:30:15.900Z,2.573319
2023-04-18T21:35:18.620Z,2.542699
2023-04-18T21:40:15.903Z,2.375806
2023-04-18T21:45:15.920Z,2.830882
2023-04-18T21:50:17.070Z,1.376210
2023-04-18T21:55:17.030Z,1.018080
2023-04-18T22:00:15.931Z,1.493601
2023-04-18T22:05:16.339Z,1.877992
2023-04-18T22:10:17.040Z,2.477480
2023-04-18T22:15:15.774Z,2.300065
2023-04-18T22:20:16.567Z,2.688869
2023-04-18T22:25:15.744Z,1.896843
2023-04-18T22:30:15.863Z,3.792346
2023-04-18T22:35:16.053Z,4.271154
2023-04-18T22:40:16.232Z,3.758405
2023-04-18T22:45:16.139Z,3.562070
2023-04-18T22:50:17.112Z,3.592175
2023-04-18T22:55:17.023Z,3.263235
2023-04-18T23:00:16.764Z,3.114158
2023-04-18T23:05:17.258Z,2.102004
2023-04-18T23:10:16.328Z,2.267554
2023-04-18T23:15:16.022Z,2.930897
2023-04-18T23:20:16.076Z,2.477441
2023-04-18T23:25:16.532Z,2.353170
2023-04-18T23:30:15.912Z,1.679456
2023-04-18T23:35:16.152Z,2.038414
2023-04-18T23:40:16.240Z,2.701878
2023-04-18T23:45:16.076Z,2.612466
2023-04-18T23:50:16.394Z,2.008273
2023-04-18T23:55:15.734Z,2.347583
